Time;durP1;ratioP1;P1;durP2;ratioP2;P2;SDS_P1;SDS_P2;PMS_P1;PMS_P2;Temp;Humidity;BMP_temperature;BMP_pressure;BME280_temperature;BME280_humidity;BME280_pressure;Samples;Min_cycle;Max_cycle;Signal;HPM_P1;HPM_P2
2023/08/19 00:01:04;;;;;;;4.30;3.90;;;26.50;65.20;;;;;;5042689;28;20048;-68
2023/08/19 00:03:31;;;;;;;4.15;3.75;;;26.50;65.20;;;;;;5064995;28;20046;-65
2023/08/19 00:06:06;;;;;;;4.18;3.83;;;26.50;65.20;;;;;;5064145;28;20128;-67
2023/08/19 00:08:32;;;;;;;5.32;4.53;;;26.50;65.20;;;;;;5049418;28;20220;-68
2023/08/19 00:10:57;;;;;;;4.70;4.30;;;26.50;65.20;;;;;;5061682;28;20025;-66
2023/08/19 00:13:26;;;;;;;4.57;4.18;;;26.50;65.20;;;;;;5066511;28;20070;-66
2023/08/19 00:15:52;;;;;;;4.25;3.85;;;26.40;65.20;;;;;;5055193;28;20021;-66
2023/08/19 00:18:18;;;;;;;5.03;4.53;;;26.50;65.90;;;;;;5046020;28;20047;-65
2023/08/19 00:20:44;;;;;;;4.50;4.10;;;26.40;65.20;;;;;;5059393;28;20036;-68
2023/08/19 00:23:10;;;;;;;4.32;4.00;;;26.40;65.10;;;;;;5064820;28;20056;-67
2023/08/19 00:25:36;;;;;;;4.13;3.72;;;26.40;65.20;;;;;;5060861;28;20047;-71
2023/08/19 00:28:04;;;;;;;4.57;4.18;;;26.40;65.10;;;;;;5058866;28;20032;-69
2023/08/19 00:30:30;;;;;;;4.07;3.70;;;26.40;65.10;;;;;;5039903;28;20444;-67
2023/08/19 00:32:56;;;;;;;4.07;3.67;;;26.40;65.10;;;;;;5058070;28;20116;-66
2023/08/19 00:35:22;;;;;;;4.80;4.30;;;26.40;65.10;;;;;;5060229;28;20159;-66
2023/08/19 00:37:47;;;;;;;4.43;4.03;;;26.40;65.10;;;;;;5062533;28;20044;-68
2023/08/19 00:40:15;;;;;;;4.68;4.28;;;26.40;65.00;;;;;;5043055;28;20065;-68
2023/08/19 00:42:41;;;;;;;4.60;4.20;;;26.40;65.00;;;;;;5046059;28;20082;-66
2023/08/19 00:45:08;;;;;;;3.97;3.67;;;26.40;65.00;;;;;;5046980;28;20408;-68
2023/08/19 00:47:39;;;;;;;4.50;4.10;;;26.40;65.00;;;;;;5046496;28;20172;-68
2023/08/19 00:50:08;;;;;;;5.05;4.55;;;26.40;65.10;;;;;;5066543;28;20117;-66
2023/08/19 00:52:35;;;;;;;4.55;4.15;;;26.40;65.10;;;;;;5063788;28;20033;-66
2023/08/19 00:55:02;;;;;;;4.70;4.30;;;26.40;65.00;;;;;;5063278;28;20029;-67
2023/08/19 00:57:29;;;;;;;4.80;4.30;;;26.40;65.10;;;;;;5040449;28;20036;-67
2023/08/19 00:59:55;;;;;;;5.00;4.55;;;26.40;65.10;;;;;;5051130;28;20342;-67
2023/08/19 01:02:21;;;;;;;4.03;3.70;;;26.40;65.10;;;;;;5063136;28;20417;-70
2023/08/19 01:04:46;;;;;;;5.07;4.43;;;26.40;65.10;;;;;;5036154;28;20029;-68
2023/08/19 01:07:23;;;;;;;4.57;4.18;;;26.40;65.10;;;;;;5040696;28;20047;-66
2023/08/19 01:09:58;;;;;;;4.50;4.10;;;26.40;65.10;;;;;;5048376;28;20313;-65
2023/08/19 01:13:04;;;;;;;4.43;4.05;;;26.40;65.10;;;;;;5064892;28;20043;-64
2023/08/19 01:15:39;;;;;;;4.57;4.18;;;26.40;65.10;;;;;;5027008;28;20059;-65
2023/08/19 01:18:06;;;;;;;4.75;4.25;;;26.40;65.10;;;;;;5067513;28;20068;-65
2023/08/19 01:20:34;;;;;;;4.70;4.30;;;26.40;65.10;;;;;;5042210;28;20056;-65
2023/08/19 01:23:05;;;;;;;4.55;4.03;;;26.40;65.10;;;;;;5060424;28;20029;-66
2023/08/19 01:25:32;;;;;;;4.50;4.10;;;26.30;65.00;;;;;;5074088;28;20032;-66
2023/08/19 01:28:03;;;;;;;4.82;4.43;;;26.40;65.10;;;;;;5070108;28;20040;-64
2023/08/19 01:30:30;;;;;;;5.47;4.95;;;26.40;65.10;;;;;;5069620;28;20033;-64
2023/08/19 01:32:57;;;;;;;4.95;4.55;;;26.30;65.00;;;;;;5067594;28;20036;-66
2023/08/19 01:35:24;;;;;;;5.18;4.68;;;26.40;65.00;;;;;;5046387;28;20126;-67
2023/08/19 01:38:17;;;;;;;5.10;4.60;;;26.40;65.00;;;;;;5042976;28;20041;-68
2023/08/19 01:40:43;;;;;;;5.18;4.68;;;26.40;65.00;;;;;;5059884;28;20036;-69
2023/08/19 01:43:11;;;;;;;5.20;4.68;;;26.40;65.00;;;;;;5064088;28;20132;-67
2023/08/19 01:45:39;;;;;;;4.80;4.40;;;26.40;65.00;;;;;;5049986;28;20043;-68
2023/08/19 01:48:06;;;;;;;5.90;5.05;;;26.40;65.00;;;;;;5053213;28;20207;-66
2023/08/19 01:50:32;;;;;;;5.53;5.03;;;26.30;64.90;;;;;;5062258;28;20024;-67
2023/08/19 01:52:59;;;;;;;4.80;4.40;;;26.30;64.90;;;;;;5058531;28;20032;-69
2023/08/19 01:55:25;;;;;;;5.10;4.70;;;26.40;65.00;;;;;;5076693;28;20070;-69
2023/08/19 01:57:51;;;;;;;5.10;4.55;;;26.30;64.90;;;;;;5050439;28;20029;-68
2023/08/19 02:00:17;;;;;;;5.32;4.82;;;26.40;65.00;;;;;;5047209;28;20162;-68
2023/08/19 02:02:43;;;;;;;4.50;4.10;;;26.30;64.90;;;;;;5069763;28;20051;-68
2023/08/19 02:05:13;;;;;;;4.60;4.07;;;26.30;64.90;;;;;;5050156;28;20046;-67
2023/08/19 02:07:39;;;;;;;5.30;4.80;;;26.30;64.90;;;;;;5065789;28;20105;-66
2023/08/19 02:10:06;;;;;;;4.80;4.30;;;26.30;64.90;;;;;;5062610;28;20081;-68
2023/08/19 02:12:32;;;;;;;4.95;4.45;;;26.30;64.90;;;;;;5063678;28;20463;-68
2023/08/19 02:14:58;;;;;;;5.57;4.82;;;26.30;64.90;;;;;;5063963;28;20103;-68
2023/08/19 02:17:24;;;;;;;4.95;4.38;;;26.30;65.00;;;;;;5072604;28;20038;-66
2023/08/19 02:19:50;;;;;;;6.05;5.03;;;26.30;64.90;;;;;;5039684;28;20032;-68
2023/08/19 02:22:20;;;;;;;4.80;4.40;;;26.30;65.00;;;;;;5043041;28;20033;-67
2023/08/19 02:24:47;;;;;;;4.88;4.38;;;26.30;65.00;;;;;;5066091;28;20037;-68
2023/08/19 02:27:13;;;;;;;5.00;4.50;;;26.30;64.90;;;;;;5062079;28;20029;-67
2023/08/19 02:29:39;;;;;;;4.90;4.50;;;26.30;65.00;;;;;;5034396;28;20052;-68
2023/08/19 02:32:05;;;;;;;5.05;4.40;;;26.30;65.00;;;;;;5062235;28;20284;-67
2023/08/19 02:34:31;;;;;;;4.95;4.30;;;26.30;65.00;;;;;;5045353;28;20028;-68
2023/08/19 02:36:57;;;;;;;4.95;4.35;;;26.30;65.00;;;;;;5066322;28;20039;-70
2023/08/19 02:39:23;;;;;;;5.18;4.68;;;26.30;65.00;;;;;;5069156;28;20050;-67
2023/08/19 02:41:49;;;;;;;4.78;4.28;;;26.30;65.00;;;;;;5041450;28;20098;-66
2023/08/19 02:44:15;;;;;;;6.07;4.50;;;26.30;65.00;;;;;;5062444;28;20585;-67
2023/08/19 02:46:41;;;;;;;4.97;4.47;;;26.30;65.00;;;;;;5039903;28;20078;-66
2023/08/19 02:49:07;;;;;;;4.55;4.15;;;26.30;65.00;;;;;;5057593;28;20017;-69
2023/08/19 02:51:32;;;;;;;5.15;4.65;;;26.30;65.00;;;;;;5043583;28;20054;-69
2023/08/19 02:53:59;;;;;;;5.15;4.65;;;26.30;65.00;;;;;;5074937;28;20020;-67
2023/08/19 02:56:25;;;;;;;4.78;4.38;;;26.30;65.00;;;;;;5067651;28;20028;-67
2023/08/19 02:58:51;;;;;;;4.72;4.22;;;26.30;65.10;;;;;;5033041;28;20024;-67
2023/08/19 03:01:17;;;;;;;4.57;4.13;;;26.30;65.10;;;;;;5064710;28;20097;-67
2023/08/19 03:03:44;;;;;;;4.80;4.40;;;26.30;65.10;;;;;;5049472;28;20318;-68
2023/08/19 03:06:10;;;;;;;5.13;4.63;;;26.20;65.00;;;;;;5049229;28;20047;-67
2023/08/19 03:08:36;;;;;;;5.05;4.53;;;26.30;65.10;;;;;;5053384;28;20051;-69
2023/08/19 03:11:02;;;;;;;5.32;4.82;;;26.20;65.70;;;;;;5062521;28;20024;-67
2023/08/19 03:13:29;;;;;;;5.00;4.60;;;26.30;65.10;;;;;;5024824;28;20515;-68
2023/08/19 03:15:59;;;;;;;5.13;4.63;;;26.30;65.10;;;;;;5050143;28;20096;-67
2023/08/19 03:18:26;;;;;;;5.40;4.88;;;26.30;65.20;;;;;;5064287;28;20406;-68
2023/08/19 03:20:58;;;;;;;4.85;4.35;;;26.30;65.10;;;;;;5049285;28;20060;-69
2023/08/19 03:23:26;;;;;;;5.07;4.57;;;26.30;65.10;;;;;;5030106;28;20084;-69
2023/08/19 03:25:53;;;;;;;4.88;4.47;;;26.20;65.00;;;;;;5058136;28;20162;-68
2023/08/19 03:28:19;;;;;;;5.00;4.60;;;26.20;65.10;;;;;;5048922;28;20040;-69
2023/08/19 03:30:45;;;;;;;5.10;4.60;;;26.20;65.00;;;;;;5065011;28;20056;-68
2023/08/19 03:33:11;;;;;;;5.20;4.70;;;26.20;65.00;;;;;;5047108;28;20048;-67
2023/08/19 03:35:37;;;;;;;6.47;5.00;;;26.20;65.10;;;;;;5045562;28;20739;-68
2023/08/19 03:38:03;;;;;;;5.63;5.10;;;26.20;65.00;;;;;;5047340;28;20029;-69
2023/08/19 03:40:29;;;;;;;5.38;4.88;;;26.20;65.00;;;;;;5044496;28;20059;-67
2023/08/19 03:42:55;;;;;;;4.93;4.53;;;26.20;65.00;;;;;;5039859;28;20056;-68
2023/08/19 03:45:21;;;;;;;4.60;4.18;;;26.20;65.10;;;;;;5041806;28;20615;-67
2023/08/19 03:47:47;;;;;;;5.18;4.68;;;26.20;65.10;;;;;;5028689;28;20132;-67
2023/08/19 03:50:13;;;;;;;5.75;5.15;;;26.20;65.00;;;;;;5025721;28;20053;-68
2023/08/19 03:52:39;;;;;;;5.25;4.75;;;26.20;65.10;;;;;;5019383;28;20033;-67
2023/08/19 03:55:08;;;;;;;4.93;4.53;;;26.20;65.10;;;;;;5019062;28;20069;-68
2023/08/19 03:57:34;;;;;;;5.63;5.03;;;26.20;65.10;;;;;;5027865;28;20025;-68
2023/08/19 04:00:01;;;;;;;5.28;4.70;;;26.20;65.10;;;;;;5018482;28;20026;-68
2023/08/19 04:02:27;;;;;;;4.88;4.38;;;26.20;65.10;;;;;;5017856;28;20052;-67
2023/08/19 04:05:01;;;;;;;5.05;4.55;;;26.20;65.10;;;;;;5035745;28;20026;-68
2023/08/19 04:07:27;;;;;;;5.53;4.93;;;26.20;65.10;;;;;;5028513;28;20029;-67
2023/08/19 04:09:55;;;;;;;5.00;4.57;;;26.20;65.10;;;;;;5030765;28;20053;-68
2023/08/19 04:12:22;;;;;;;5.35;4.85;;;26.20;65.10;;;;;;5022939;28;20108;-67
2023/08/19 04:14:48;;;;;;;4.85;4.45;;;26.20;65.10;;;;;;5053170;28;20061;-69
2023/08/19 04:17:15;;;;;;;6.03;5.00;;;26.20;65.10;;;;;;5024809;28;20049;-69
2023/08/19 04:19:41;;;;;;;4.70;4.28;;;26.20;65.10;;;;;;5032408;28;20115;-68
2023/08/19 04:22:07;;;;;;;5.07;4.57;;;26.20;65.10;;;;;;5026471;28;20057;-68
2023/08/19 04:24:33;;;;;;;4.97;4.47;;;26.20;65.00;;;;;;5039745;28;20060;-68
2023/08/19 04:27:02;;;;;;;5.80;4.53;;;26.20;65.00;;;;;;5030907;28;20067;-68
2023/08/19 04:29:28;;;;;;;5.00;4.50;;;26.20;65.00;;;;;;5028411;28;20053;-68
2023/08/19 04:31:55;;;;;;;6.50;5.00;;;26.20;65.00;;;;;;5034942;28;20060;-67
2023/08/19 04:34:21;;;;;;;5.35;4.45;;;26.20;64.90;;;;;;5024714;28;20064;-67
2023/08/19 04:36:47;;;;;;;5.30;4.80;;;26.20;64.90;;;;;;5022815;28;20021;-68
2023/08/19 04:39:13;;;;;;;5.38;4.88;;;26.20;64.90;;;;;;5030227;28;20022;-69
2023/08/19 04:41:39;;;;;;;5.07;4.25;;;26.20;64.80;;;;;;5025314;28;20042;-67
2023/08/19 04:44:06;;;;;;;5.32;4.82;;;26.20;64.80;;;;;;5022411;28;20030;-67
2023/08/19 04:46:32;;;;;;;4.80;4.30;;;26.20;64.80;;;;;;5029477;28;20040;-67
2023/08/19 04:48:58;;;;;;;4.78;4.15;;;26.20;64.80;;;;;;5050689;28;20078;-68
2023/08/19 04:51:24;;;;;;;4.65;4.22;;;26.20;64.80;;;;;;5043731;28;20033;-68
2023/08/19 04:53:50;;;;;;;4.95;4.55;;;26.20;64.80;;;;;;5044994;28;20025;-68
2023/08/19 04:56:17;;;;;;;4.80;4.30;;;26.20;64.70;;;;;;5058272;28;20028;-66
2023/08/19 04:58:43;;;;;;;4.88;4.40;;;26.20;64.70;;;;;;5055388;28;20024;-68
2023/08/19 05:01:09;;;;;;;5.18;4.15;;;26.20;64.60;;;;;;5039559;28;20416;-68
2023/08/19 05:03:36;;;;;;;4.70;4.10;;;26.20;64.60;;;;;;5045499;28;20045;-68
2023/08/19 05:06:03;;;;;;;5.18;4.38;;;26.20;64.60;;;;;;5039507;28;20095;-69
2023/08/19 05:08:37;;;;;;;4.32;3.92;;;26.20;64.60;;;;;;5033892;28;20397;-68
2023/08/19 05:11:02;;;;;;;4.80;4.10;;;26.20;64.60;;;;;;5045047;28;20024;-68
2023/08/19 05:13:28;;;;;;;6.07;4.43;;;26.20;64.50;;;;;;5043738;28;20092;-69
2023/08/19 05:15:54;;;;;;;5.03;4.53;;;26.20;64.50;;;;;;5038535;28;20455;-68
2023/08/19 05:18:20;;;;;;;4.50;4.10;;;26.20;64.50;;;;;;5050283;28;20021;-67
2023/08/19 05:20:46;;;;;;;5.30;4.50;;;26.20;64.50;;;;;;5069842;28;20044;-67
2023/08/19 05:23:14;;;;;;;4.43;4.03;;;26.20;64.50;;;;;;5043653;28;20028;-67
2023/08/19 05:25:39;;;;;;;4.82;4.22;;;26.20;64.40;;;;;;5060443;28;20488;-67
2023/08/19 05:28:05;;;;;;;5.00;4.50;;;26.20;64.40;;;;;;5072076;28;20366;-68
2023/08/19 05:30:31;;;;;;;4.53;4.13;;;26.20;64.40;;;;;;5066035;28;20099;-68
2023/08/19 05:33:01;;;;;;;4.70;3.80;;;26.20;64.40;;;;;;5046903;28;20363;-67
2023/08/19 05:35:27;;;;;;;4.75;4.25;;;26.20;64.40;;;;;;5064709;28;20032;-67
2023/08/19 05:37:53;;;;;;;4.93;4.22;;;26.20;65.00;;;;;;5047707;28;20079;-68
2023/08/19 05:40:19;;;;;;;4.63;3.95;;;26.20;64.40;;;;;;5045324;28;20387;-68
2023/08/19 05:42:44;;;;;;;5.80;3.97;;;26.20;64.40;;;;;;5063196;28;20127;-67
2023/08/19 05:45:10;;;;;;;4.70;4.30;;;26.20;64.40;;;;;;5065186;28;20097;-68
2023/08/19 05:47:37;;;;;;;4.85;3.90;;;26.20;64.40;;;;;;5061977;28;20053;-66
2023/08/19 05:50:04;;;;;;;5.13;3.83;;;26.20;64.40;;;;;;5069897;28;20052;-64
2023/08/19 05:52:29;;;;;;;4.47;4.07;;;26.20;64.40;;;;;;5043098;28;20375;-67
2023/08/19 05:54:55;;;;;;;4.85;3.90;;;26.20;64.40;;;;;;5060736;28;20032;-65
2023/08/19 05:57:21;;;;;;;4.35;3.85;;;26.20;64.30;;;;;;5070042;28;20183;-67
2023/08/19 05:59:47;;;;;;;4.07;3.67;;;26.20;64.30;;;;;;5076203;28;20036;-65
2023/08/19 06:02:13;;;;;;;4.00;3.60;;;26.20;64.20;;;;;;5049698;28;20040;-65
2023/08/19 06:04:39;;;;;;;4.18;3.55;;;26.20;64.20;;;;;;5040499;28;20115;-65
2023/08/19 06:07:05;;;;;;;5.55;3.90;;;26.20;64.20;;;;;;5060656;28;20025;-65
2023/08/19 06:09:31;;;;;;;4.03;3.33;;;26.20;64.20;;;;;;5068398;28;20080;-65
2023/08/19 06:11:56;;;;;;;4.80;3.70;;;26.20;64.10;;;;;;5062889;28;20103;-67
2023/08/19 06:14:22;;;;;;;4.38;3.50;;;26.20;64.10;;;;;;5065709;28;20044;-66
2023/08/19 06:16:48;;;;;;;4.00;3.67;;;26.20;64.10;;;;;;5062064;28;20342;-66
2023/08/19 06:19:15;;;;;;;5.00;3.67;;;26.20;64.10;;;;;;5066575;28;20151;-66
2023/08/19 06:21:41;;;;;;;3.92;3.60;;;26.20;64.10;;;;;;5060719;28;20037;-67
2023/08/19 06:24:07;;;;;;;4.72;3.38;;;26.30;64.20;;;;;;5056854;28;20037;-65
2023/08/19 06:26:33;;;;;;;5.78;4.00;;;26.20;64.20;;;;;;5062506;28;20036;-65
2023/08/19 06:28:59;;;;;;;3.63;3.20;;;26.20;64.20;;;;;;5066276;28;20032;-65
2023/08/19 06:31:26;;;;;;;5.40;3.55;;;26.20;64.20;;;;;;5071594;28;20047;-64
2023/08/19 06:33:54;;;;;;;5.50;3.78;;;26.30;65.00;;;;;;5052674;28;20151;-65
2023/08/19 06:36:29;;;;;;;3.40;3.10;;;26.30;64.30;;;;;;5064592;28;20405;-64
2023/08/19 06:39:07;;;;;;;5.18;3.50;;;26.30;64.40;;;;;;5067947;28;20466;-64
2023/08/19 06:41:38;;;;;;;6.00;4.00;;;26.30;64.40;;;;;;5063038;28;20062;-65
2023/08/19 06:44:07;;;;;;;4.40;3.65;;;26.30;64.50;;;;;;5029796;28;20088;-65
2023/08/19 06:46:33;;;;;;;4.05;3.15;;;26.30;64.50;;;;;;5060929;28;20152;-64
2023/08/19 06:49:00;;;;;;;3.95;3.30;;;26.30;64.50;;;;;;5062956;28;20139;-64
2023/08/19 06:51:27;;;;;;;3.83;3.13;;;26.30;64.50;;;;;;5040665;28;20028;-64
2023/08/19 06:53:54;;;;;;;5.35;3.20;;;26.30;64.50;;;;;;5058991;28;20443;-64
2023/08/19 06:56:37;;;;;;;3.80;3.20;;;26.30;64.50;;;;;;5063549;28;20072;-64
2023/08/19 06:59:14;;;;;;;3.80;3.08;;;26.30;64.50;;;;;;5075167;28;20035;-65
2023/08/19 07:01:44;;;;;;;4.10;3.00;;;26.30;64.50;;;;;;5045274;28;20178;-67
2023/08/19 07:04:13;;;;;;;4.47;3.35;;;26.30;64.40;;;;;;5070135;28;20044;-66
2023/08/19 07:06:40;;;;;;;4.45;3.35;;;26.40;64.40;;;;;;5070587;28;20032;-65
2023/08/19 07:09:08;;;;;;;3.83;3.00;;;26.40;64.40;;;;;;5056902;28;20434;-65
2023/08/19 07:11:34;;;;;;;5.03;3.15;;;26.40;64.40;;;;;;5070481;28;20040;-66
2023/08/19 07:14:01;;;;;;;4.88;3.58;;;26.30;64.30;;;;;;5071523;28;20032;-64
2023/08/19 07:16:31;;;;;;;4.20;3.22;;;26.40;64.30;;;;;;5048223;28;20048;-64
2023/08/19 07:19:05;;;;;;;3.95;3.17;;;26.40;64.20;;;;;;5071103;28;20025;-66
2023/08/19 07:21:34;;;;;;;5.30;2.97;;;26.40;64.10;;;;;;5063594;28;20044;-66
2023/08/19 07:24:02;;;;;;;3.28;2.85;;;26.40;64.10;;;;;;5066690;28;20458;-65
2023/08/19 07:26:29;;;;;;;3.42;3.03;;;26.40;64.00;;;;;;5066657;28;20086;-67
2023/08/19 07:28:55;;;;;;;3.80;2.72;;;26.40;64.00;;;;;;5068293;28;20033;-67
2023/08/19 07:31:22;;;;;;;4.18;3.13;;;26.40;63.90;;;;;;5062926;28;20047;-65
2023/08/19 07:33:48;;;;;;;3.55;3.05;;;26.40;63.80;;;;;;5063338;28;20123;-67
2023/08/19 07:36:14;;;;;;;3.97;2.97;;;26.40;63.80;;;;;;5071962;28;20025;-67
2023/08/19 07:38:40;;;;;;;4.18;3.05;;;26.40;63.90;;;;;;5066366;28;20507;-66
2023/08/19 07:41:06;;;;;;;3.83;2.75;;;26.50;64.00;;;;;;5063038;28;20075;-67
2023/08/19 07:43:32;;;;;;;4.35;3.47;;;26.50;63.90;;;;;;5073415;28;20028;-65
2023/08/19 07:45:58;;;;;;;4.53;3.58;;;26.50;63.90;;;;;;5060103;28;20075;-67
2023/08/19 07:48:24;;;;;;;3.95;3.10;;;26.50;63.80;;;;;;5049395;28;20379;-65
2023/08/19 07:50:54;;;;;;;4.18;3.13;;;26.50;63.70;;;;;;5075629;28;20025;-66
2023/08/19 07:53:20;;;;;;;4.97;3.20;;;26.50;63.70;;;;;;5059744;28;20101;-65
2023/08/19 07:55:47;;;;;;;4.45;3.00;;;26.60;63.70;;;;;;5076085;28;20093;-65
2023/08/19 07:58:13;;;;;;;4.72;3.05;;;26.60;63.70;;;;;;5079478;28;20024;-65
2023/08/19 08:00:39;;;;;;;4.18;3.00;;;26.60;63.60;;;;;;5085671;28;20028;-66
2023/08/19 08:03:06;;;;;;;4.82;3.05;;;26.60;63.60;;;;;;5067452;28;20032;-67
2023/08/19 08:05:32;;;;;;;3.03;2.47;;;26.60;63.60;;;;;;5067023;28;20036;-65
2023/08/19 08:07:58;;;;;;;4.55;2.85;;;26.60;63.60;;;;;;5055527;28;20454;-66
2023/08/19 08:10:24;;;;;;;3.38;2.83;;;26.60;63.60;;;;;;5041920;28;20432;-67
2023/08/19 08:12:50;;;;;;;5.50;2.75;;;26.60;63.60;;;;;;5064944;28;20063;-65
2023/08/19 08:15:16;;;;;;;2.58;2.35;;;26.60;63.60;;;;;;5069724;28;20353;-67
2023/08/19 08:17:42;;;;;;;3.78;2.83;;;26.60;63.60;;;;;;5049180;28;20038;-66
2023/08/19 08:20:08;;;;;;;3.72;2.58;;;26.60;63.60;;;;;;5064676;28;20029;-65
2023/08/19 08:22:35;;;;;;;4.03;2.72;;;26.60;63.60;;;;;;5063486;28;20036;-66
2023/08/19 08:25:04;;;;;;;3.60;2.90;;;26.60;63.60;;;;;;5035628;28;20029;-65
2023/08/19 08:27:30;;;;;;;6.57;2.78;;;26.60;63.60;;;;;;5053400;28;20048;-66
2023/08/19 08:29:56;;;;;;;4.05;3.10;;;26.60;63.50;;;;;;5071624;28;20121;-66
2023/08/19 08:32:22;;;;;;;3.28;2.67;;;26.70;63.50;;;;;;5071253;28;20028;-68
2023/08/19 08:34:48;;;;;;;3.60;2.58;;;26.70;64.20;;;;;;5082236;28;20316;-68
2023/08/19 08:37:14;;;;;;;4.28;2.90;;;26.70;63.50;;;;;;5069625;28;20086;-66
2023/08/19 08:39:40;;;;;;;5.28;2.65;;;26.70;63.60;;;;;;5070609;28;20020;-68
2023/08/19 08:42:08;;;;;;;3.13;2.50;;;26.70;63.50;;;;;;5069486;28;20132;-67
2023/08/19 08:44:36;;;;;;;3.95;2.92;;;26.70;63.60;;;;;;5066165;28;20150;-69
2023/08/19 08:47:03;;;;;;;4.53;2.83;;;26.70;63.50;;;;;;5066895;28;20060;-66
2023/08/19 08:49:29;;;;;;;3.25;2.60;;;26.70;63.60;;;;;;5059986;28;20036;-68
2023/08/19 08:51:56;;;;;;;2.70;2.47;;;26.70;63.60;;;;;;5064466;28;20036;-66
2023/08/19 08:54:23;;;;;;;3.72;2.60;;;26.80;63.70;;;;;;5071722;28;20438;-68
2023/08/19 08:56:49;;;;;;;3.55;2.50;;;26.80;64.30;;;;;;5051690;28;20131;-65
2023/08/19 08:59:16;;;;;;;5.53;3.03;;;26.80;63.70;;;;;;5039808;28;20032;-67
2023/08/19 09:01:45;;;;;;;3.70;2.80;;;26.80;63.60;;;;;;5063803;28;20509;-66
2023/08/19 09:04:13;;;;;;;3.75;2.58;;;26.90;63.70;;;;;;5034043;28;20029;-72
2023/08/19 09:06:42;;;;;;;3.78;2.72;;;26.90;63.80;;;;;;5078664;28;20076;-67
2023/08/19 09:09:11;;;;;;;4.75;3.25;;;26.90;63.80;;;;;;5071267;28;20120;-69
2023/08/19 09:11:40;;;;;;;3.63;2.85;;;26.90;63.90;;;;;;5066819;28;20079;-69
2023/08/19 09:14:17;;;;;;;5.03;2.90;;;26.90;64.00;;;;;;5071782;28;20036;-62
2023/08/19 09:16:43;;;;;;;6.38;3.40;;;26.90;64.00;;;;;;5066240;28;20040;-65
2023/08/19 09:19:09;;;;;;;6.18;2.90;;;26.90;64.10;;;;;;5060784;28;20025;-66
2023/08/19 09:21:36;;;;;;;4.03;2.33;;;26.90;63.60;;;;;;5069616;28;20040;-67
2023/08/19 09:24:02;;;;;;;5.05;3.10;;;26.90;63.00;;;;;;5073520;28;20097;-70
2023/08/19 09:26:28;;;;;;;3.45;2.60;;;26.90;62.70;;;;;;5066405;28;20032;-68
2023/08/19 09:28:58;;;;;;;3.92;2.88;;;26.90;62.50;;;;;;5042467;28;20033;-69
2023/08/19 09:31:27;;;;;;;4.85;3.22;;;26.90;62.50;;;;;;5066770;28;20021;-68
2023/08/19 09:33:54;;;;;;;3.13;2.78;;;26.90;62.50;;;;;;5065702;28;20025;-69
2023/08/19 09:36:24;;;;;;;3.47;2.97;;;26.90;62.50;;;;;;5063600;28;20450;-71
2023/08/19 09:38:56;;;;;;;4.75;3.28;;;26.90;62.60;;;;;;5064168;28;20031;-71
2023/08/19 09:41:30;;;;;;;5.43;3.15;;;26.90;62.60;;;;;;5069161;28;20657;-69
2023/08/19 09:43:59;;;;;;;3.85;3.42;;;26.90;62.60;;;;;;5069363;28;20034;-68
2023/08/19 09:46:34;;;;;;;6.10;3.78;;;26.90;62.70;;;;;;5072135;28;20028;-68
2023/08/19 09:49:00;;;;;;;3.50;2.90;;;26.90;63.30;;;;;;5049474;28;20033;-68
2023/08/19 09:51:28;;;;;;;3.78;3.33;;;26.90;63.50;;;;;;5068941;28;20077;-69
2023/08/19 09:53:58;;;;;;;3.30;2.97;;;26.90;63.60;;;;;;5047618;28;20037;-67
2023/08/19 09:56:28;;;;;;;8.70;3.38;;;26.90;63.40;;;;;;5049553;28;20095;-65
2023/08/19 09:58:54;;;;;;;3.83;2.70;;;26.90;63.00;;;;;;5051631;28;20423;-65
2023/08/19 10:01:22;;;;;;;8.32;2.72;;;26.90;62.40;;;;;;5069139;28;20052;-67
2023/08/19 10:03:49;;;;;;;2.80;2.28;;;26.90;61.80;;;;;;5063441;28;20066;-66
2023/08/19 10:06:27;;;;;;;3.53;2.75;;;26.90;61.60;;;;;;5057625;28;20343;-67
2023/08/19 10:09:02;;;;;;;4.15;2.83;;;26.90;61.70;;;;;;5059363;28;20300;-64
2023/08/19 10:11:30;;;;;;;3.40;3.10;;;26.90;62.00;;;;;;5060356;28;20293;-66
2023/08/19 10:14:02;;;;;;;4.07;2.67;;;26.90;62.20;;;;;;5067651;28;20106;-65
2023/08/19 10:16:32;;;;;;;4.88;3.22;;;26.90;62.40;;;;;;5071464;28;20105;-67
2023/08/19 10:19:00;;;;;;;3.70;3.15;;;27.00;62.60;;;;;;5034272;28;20350;-66
2023/08/19 10:21:30;;;;;;;6.07;3.20;;;27.00;62.70;;;;;;5059059;28;20041;-67
2023/08/19 10:23:57;;;;;;;3.38;3.08;;;27.00;62.80;;;;;;5071575;28;20033;-64
2023/08/19 10:26:23;;;;;;;3.95;3.40;;;27.00;63.00;;;;;;5064629;28;20046;-65
2023/08/19 10:29:06;;;;;;;4.45;3.70;;;27.00;63.40;;;;;;5073737;28;20078;-65
2023/08/19 10:31:32;;;;;;;4.78;4.25;;;27.10;63.90;;;;;;5060839;28;20039;-67
2023/08/19 10:34:09;;;;;;;4.35;3.90;;;27.20;64.00;;;;;;5039669;28;20231;-65
2023/08/19 10:36:34;;;;;;;5.47;3.97;;;27.20;64.00;;;;;;5063507;28;20404;-67
2023/08/19 10:39:00;;;;;;;6.45;4.40;;;27.20;63.80;;;;;;5066451;28;20107;-61
2023/08/19 10:41:30;;;;;;;5.22;4.18;;;27.20;63.80;;;;;;5065686;28;20052;-67
2023/08/19 10:44:07;;;;;;;4.88;3.83;;;27.20;63.90;;;;;;5043241;28;20111;-65
2023/08/19 10:46:47;;;;;;;4.78;4.28;;;27.20;63.80;;;;;;5060504;28;20051;-64
2023/08/19 10:49:19;;;;;;;6.25;4.10;;;27.20;63.60;;;;;;5064949;28;20059;-65
2023/08/19 10:52:05;;;;;;;5.07;4.03;;;27.20;63.50;;;;;;5041332;28;20101;-67
2023/08/19 10:54:38;;;;;;;5.68;4.32;;;27.20;63.50;;;;;;5055409;28;20172;-66
2023/08/19 10:57:24;;;;;;;5.80;4.60;;;27.30;63.50;;;;;;5066397;28;20029;-63
2023/08/19 10:59:58;;;;;;;4.75;4.32;;;27.30;63.50;;;;;;5036395;28;20317;-65
2023/08/19 11:02:27;;;;;;;4.90;4.40;;;27.30;63.60;;;;;;5062539;28;20119;-67
2023/08/19 11:04:53;;;;;;;5.45;4.35;;;27.30;63.70;;;;;;5067258;28;20033;-68
2023/08/19 11:07:21;;;;;;;5.45;4.43;;;27.30;63.70;;;;;;5065654;28;20036;-68
2023/08/19 11:09:49;;;;;;;5.28;4.45;;;27.30;63.70;;;;;;5075341;28;20331;-63
2023/08/19 11:12:19;;;;;;;5.82;4.63;;;27.30;63.70;;;;;;5063361;28;20380;-65
2023/08/19 11:14:55;;;;;;;5.70;4.85;;;27.30;63.80;;;;;;5058568;28;20167;-66
2023/08/19 11:17:31;;;;;;;4.93;4.43;;;27.30;64.00;;;;;;5064553;28;20078;-65
2023/08/19 11:20:00;;;;;;;5.15;4.50;;;27.30;64.10;;;;;;5064108;28;20333;-67
2023/08/19 11:22:26;;;;;;;5.32;4.30;;;27.30;64.10;;;;;;5065337;28;20121;-65
2023/08/19 11:24:51;;;;;;;5.60;4.82;;;27.30;64.00;;;;;;5069768;28;20132;-64
2023/08/19 11:27:17;;;;;;;5.93;5.25;;;27.40;64.10;;;;;;5073201;28;20058;-68
2023/08/19 11:29:47;;;;;;;5.70;5.15;;;27.40;64.30;;;;;;5065712;28;20024;-66
2023/08/19 11:32:20;;;;;;;6.75;4.57;;;27.40;64.20;;;;;;5070229;28;20107;-69
2023/08/19 11:34:46;;;;;;;5.20;4.70;;;27.40;64.20;;;;;;5049656;28;20031;-68
2023/08/19 11:37:11;;;;;;;6.22;5.55;;;27.40;64.20;;;;;;5037375;28;20042;-66
2023/08/19 11:39:37;;;;;;;5.55;4.78;;;27.40;64.20;;;;;;5060393;28;20050;-67
2023/08/19 11:42:03;;;;;;;5.95;5.35;;;27.40;64.20;;;;;;5058067;28;20548;-67
2023/08/19 11:44:31;;;;;;;5.32;4.82;;;27.40;64.10;;;;;;5069187;28;20043;-67
2023/08/19 11:46:57;;;;;;;5.72;5.00;;;27.40;64.20;;;;;;5047478;28;20095;-65
2023/08/19 11:49:27;;;;;;;6.15;5.55;;;27.40;64.20;;;;;;5057656;28;20032;-65
2023/08/19 11:51:53;;;;;;;6.05;5.47;;;27.40;64.20;;;;;;5045873;28;20044;-64
2023/08/19 11:54:21;;;;;;;5.68;5.07;;;27.40;64.20;;;;;;5063985;28;20519;-65
2023/08/19 11:56:48;;;;;;;6.63;5.93;;;27.40;64.30;;;;;;5060235;28;20110;-66
2023/08/19 11:59:14;;;;;;;6.18;5.57;;;27.40;64.90;;;;;;5053859;28;20138;-64
2023/08/19 12:01:41;;;;;;;5.15;4.68;;;27.40;64.30;;;;;;5060765;28;20041;-66
2023/08/19 12:04:17;;;;;;;6.18;5.60;;;27.40;64.30;;;;;;5040852;28;20841;-65
2023/08/19 12:06:44;;;;;;;6.45;5.68;;;27.40;64.30;;;;;;5066315;28;20024;-65
2023/08/19 12:09:10;;;;;;;6.50;5.90;;;27.50;64.30;;;;;;5044894;28;20025;-66
2023/08/19 12:11:38;;;;;;;6.13;5.53;;;27.40;64.30;;;;;;5064793;28;20171;-65
2023/08/19 12:14:05;;;;;;;5.65;5.15;;;27.40;64.30;;;;;;5074365;28;20024;-65
2023/08/19 12:16:31;;;;;;;5.85;5.35;;;27.40;64.30;;;;;;5077455;28;20694;-66
2023/08/19 12:18:58;;;;;;;5.78;5.28;;;27.40;64.30;;;;;;5060827;28;20048;-69
2023/08/19 12:21:24;;;;;;;5.85;5.35;;;27.40;64.30;;;;;;5061944;28;20392;-64
2023/08/19 12:23:50;;;;;;;5.60;5.10;;;27.50;64.40;;;;;;5052375;28;20344;-65
2023/08/19 12:26:16;;;;;;;5.60;5.10;;;27.50;64.40;;;;;;5074012;28;20099;-65
2023/08/19 12:28:43;;;;;;;5.72;5.13;;;27.50;64.40;;;;;;5079255;28;20029;-66
2023/08/19 12:31:10;;;;;;;5.78;5.10;;;27.50;64.40;;;;;;5072007;28;20033;-65
2023/08/19 12:33:36;;;;;;;5.22;4.72;;;27.50;64.40;;;;;;5074498;28;20033;-67
2023/08/19 12:36:02;;;;;;;5.13;4.45;;;27.50;64.40;;;;;;5060941;28;20029;-66
2023/08/19 12:38:28;;;;;;;5.35;4.60;;;27.50;64.30;;;;;;5075267;28;20032;-65
2023/08/19 12:40:54;;;;;;;5.68;4.93;;;27.50;64.40;;;;;;5073510;28;20039;-66
2023/08/19 12:43:20;;;;;;;5.00;4.50;;;27.50;64.30;;;;;;5075697;28;20032;-62
2023/08/19 12:45:46;;;;;;;9.10;4.70;;;27.50;64.30;;;;;;5052458;28;20110;-65
2023/08/19 12:48:12;;;;;;;4.88;4.22;;;27.50;64.40;;;;;;5070950;28;20045;-65
2023/08/19 12:50:38;;;;;;;4.43;4.03;;;27.50;64.40;;;;;;5074957;28;20051;-66